Goehner, Nebraska
Current Conditions -  °F | °C
As of 4:55 AM on Friday 31 Oct 2014 (Local Time) from KJYR Reporting Station
Clear Clear  
Wind Chill: 18°   Ceiling: Unl
Heat Index: 30°   Visibility: 10mi
Dew Point: 23°   Wind: 17mph
Humidity: 75%   Direction: 20°NNE
Pressure: 30.51"   Gusts: NA
Location:  40.83°N, 97.22°W
Report Text: KJYR 310955Z AUTO 02015KT 10SM CLR M01/M05 A3051 RMK AO2
Loading
Personal Weather Stations






























Interactive Weather Map
Tropical Storm Tracking
New forecast layout! Learn more

10-Day Weather Forecast

Advertisements
Track Severe Weather on mobile